Time;durP1;ratioP1;P1;durP2;ratioP2;P2;SDS_P1;SDS_P2;PMS_P1;PMS_P2;Temp;Humidity;BMP_temperature;BMP_pressure;BME280_temperature;BME280_humidity;BME280_pressure;Samples;Min_cycle;Max_cycle;Signal;HPM_P1;HPM_P2
2023/04/16 00:01:38;;;;;;;11.30;10.30;;;10.00;1.00;;;;;;5052456;28;20476;-56
2023/04/16 00:04:04;;;;;;;10.57;9.63;;;10.00;1.00;;;;;;5055397;28;20523;-58
2023/04/16 00:06:30;;;;;;;11.50;10.37;;;10.00;1.00;;;;;;5056237;28;20662;-56
2023/04/16 00:08:56;;;;;;;11.07;10.07;;;9.90;1.00;;;;;;5048350;28;20471;-57
2023/04/16 00:11:22;;;;;;;11.97;10.20;;;9.80;1.00;;;;;;5044747;28;20791;-56
2023/04/16 00:13:47;;;;;;;11.63;10.43;;;9.80;1.00;;;;;;5047744;28;20199;-59
2023/04/16 00:16:13;;;;;;;12.47;11.07;;;9.80;1.00;;;;;;5048989;28;20257;-58
2023/04/16 00:18:39;;;;;;;11.70;10.50;;;9.80;1.00;;;;;;5056154;28;20458;-56
2023/04/16 00:21:06;;;;;;;12.07;10.90;;;9.80;1.00;;;;;;5055272;28;20199;-56
2023/04/16 00:23:31;;;;;;;11.70;10.70;;;9.80;1.00;;;;;;5048846;28;20446;-56
2023/04/16 00:25:58;;;;;;;11.00;9.90;;;9.80;1.00;;;;;;5051265;28;20439;-58
2023/04/16 00:28:25;;;;;;;11.60;10.50;;;9.70;1.00;;;;;;5048968;28;20212;-56
2023/04/16 00:30:50;;;;;;;13.20;11.13;;;9.70;1.00;;;;;;5046303;28;20447;-57
2023/04/16 00:33:16;;;;;;;13.50;11.37;;;9.60;1.00;;;;;;5048570;28;20439;-60
2023/04/16 00:35:45;;;;;;;10.80;9.90;;;9.60;1.00;;;;;;5047878;28;20235;-57
2023/04/16 00:38:10;;;;;;;15.03;11.87;;;9.60;1.00;;;;;;5044203;28;20231;-57
2023/04/16 00:40:36;;;;;;;12.33;11.23;;;9.70;1.00;;;;;;5049000;28;20482;-57
2023/04/16 00:43:02;;;;;;;12.40;11.30;;;9.80;1.00;;;;;;5047343;28;20192;-56
2023/04/16 00:45:27;;;;;;;13.90;10.90;;;9.70;1.00;;;;;;5048026;28;20259;-56
2023/04/16 00:47:54;;;;;;;12.37;11.17;;;9.70;1.00;;;;;;5046526;28;20195;-57
2023/04/16 00:50:20;;;;;;;12.37;11.17;;;9.70;1.00;;;;;;5044305;28;20200;-57
2023/04/16 00:52:47;;;;;;;11.70;10.60;;;9.70;1.00;;;;;;5056397;28;20514;-56
2023/04/16 00:55:14;;;;;;;12.33;11.20;;;9.70;1.00;;;;;;5046219;28;21096;-57
2023/04/16 00:57:39;;;;;;;12.67;11.50;;;9.60;1.00;;;;;;5052402;28;20493;-57
2023/04/16 01:00:06;;;;;;;12.53;11.33;;;9.70;1.00;;;;;;5046669;28;20528;-57
2023/04/16 01:02:33;;;;;;;10.80;9.70;;;9.70;1.00;;;;;;5043649;28;21103;-57
2023/04/16 01:05:00;;;;;;;11.00;9.90;;;9.70;1.00;;;;;;5047387;28;20955;-58
2023/04/16 01:07:25;;;;;;;11.80;10.77;;;9.60;1.00;;;;;;5045760;28;20489;-57
2023/04/16 01:09:51;;;;;;;11.40;10.30;;;9.60;1.00;;;;;;5048838;28;20513;-56
2023/04/16 01:12:17;;;;;;;11.83;10.73;;;9.60;1.00;;;;;;5051725;28;20320;-56
2023/04/16 01:14:42;;;;;;;11.40;10.20;;;9.60;1.00;;;;;;5052416;28;20276;-56
2023/04/16 01:17:08;;;;;;;11.43;10.33;;;9.60;1.00;;;;;;5047797;28;20189;-57
2023/04/16 01:19:35;;;;;;;11.20;10.20;;;9.60;1.00;;;;;;5049544;28;20194;-57
2023/04/16 01:22:01;;;;;;;10.07;9.20;;;9.60;1.00;;;;;;5052066;28;20235;-56
2023/04/16 01:24:27;;;;;;;11.30;10.20;;;9.60;1.00;;;;;;5046589;28;20858;-58
2023/04/16 01:26:53;;;;;;;11.03;10.00;;;9.60;1.00;;;;;;5045078;28;20538;-57
2023/04/16 01:29:19;;;;;;;10.40;9.50;;;9.60;1.00;;;;;;5053241;28;20294;-56
2023/04/16 01:31:45;;;;;;;10.77;9.77;;;9.60;1.00;;;;;;5055645;28;20539;-57
2023/04/16 01:34:11;;;;;;;11.30;10.30;;;9.60;1.00;;;;;;5046497;28;20488;-56
2023/04/16 01:36:37;;;;;;;10.47;9.47;;;9.60;1.00;;;;;;5047680;28;21051;-56
2023/04/16 01:39:03;;;;;;;11.33;10.33;;;9.50;1.00;;;;;;5047759;28;20469;-57
2023/04/16 01:41:30;;;;;;;11.43;10.37;;;9.40;1.00;;;;;;5046171;28;20196;-57
2023/04/16 01:43:55;;;;;;;11.53;10.50;;;9.50;1.00;;;;;;5048596;28;20435;-57
2023/04/16 01:46:28;;;;;;;10.93;9.93;;;9.50;1.00;;;;;;5060528;28;20461;-56
2023/04/16 01:48:54;;;;;;;10.90;9.90;;;9.60;1.00;;;;;;5051996;28;20207;-57
2023/04/16 01:51:20;;;;;;;11.10;10.10;;;9.50;1.00;;;;;;5043956;28;20447;-57
2023/04/16 01:53:46;;;;;;;11.20;10.17;;;9.50;1.00;;;;;;5068407;28;20490;-56
2023/04/16 01:56:12;;;;;;;11.80;10.70;;;9.40;1.00;;;;;;5050716;28;20478;-57
2023/04/16 01:58:37;;;;;;;10.60;9.60;;;9.40;1.00;;;;;;5047779;28;20192;-56
2023/04/16 02:01:04;;;;;;;11.63;10.43;;;9.40;1.00;;;;;;5045284;28;20193;-57
2023/04/16 02:03:30;;;;;;;11.57;10.43;;;9.40;1.00;;;;;;5048646;28;20192;-56
2023/04/16 02:05:56;;;;;;;10.60;9.60;;;9.20;1.00;;;;;;5048267;28;21037;-56
2023/04/16 02:08:22;;;;;;;12.00;10.90;;;9.10;1.00;;;;;;5064631;28;20209;-57
2023/04/16 02:10:49;;;;;;;11.17;10.17;;;9.00;1.00;;;;;;5054642;28;20188;-57
2023/04/16 02:13:15;;;;;;;11.70;10.60;;;8.90;1.00;;;;;;5045605;28;20454;-56
2023/04/16 02:15:48;;;;;;;13.00;11.10;;;8.90;1.00;;;;;;5043100;28;20454;-57
2023/04/16 02:18:14;;;;;;;12.93;11.73;;;8.90;1.00;;;;;;5041942;28;20786;-57
2023/04/16 02:20:41;;;;;;;11.67;10.53;;;8.80;1.00;;;;;;5046774;28;20817;-57
2023/04/16 02:23:07;;;;;;;12.00;10.90;;;8.70;1.00;;;;;;5043072;28;20964;-57
2023/04/16 02:25:43;;;;;;;11.23;10.03;;;8.70;1.00;;;;;;5047696;28;20439;-56
2023/04/16 02:28:11;;;;;;;11.57;10.47;;;9.10;1.00;;;;;;5052219;28;20192;-56
2023/04/16 02:30:39;;;;;;;11.60;10.50;;;8.60;1.00;;;;;;5050502;28;20451;-57
2023/04/16 02:33:07;;;;;;;11.50;10.30;;;8.60;1.00;;;;;;5050231;28;20439;-56
2023/04/16 02:35:33;;;;;;;10.70;9.70;;;8.50;1.00;;;;;;5049488;28;20838;-57
2023/04/16 02:37:59;;;;;;;12.07;10.80;;;8.50;1.00;;;;;;5051867;28;20480;-56
2023/04/16 02:40:25;;;;;;;12.33;11.13;;;8.50;1.00;;;;;;5051540;28;20488;-58
2023/04/16 02:42:52;;;;;;;10.43;9.53;;;8.50;1.00;;;;;;5046858;28;20473;-56
2023/04/16 02:45:18;;;;;;;12.20;10.90;;;8.50;1.00;;;;;;5048976;28;20446;-56
2023/04/16 02:47:44;;;;;;;12.20;11.07;;;8.60;1.00;;;;;;5049206;28;20812;-58
2023/04/16 02:50:10;;;;;;;12.10;11.00;;;8.60;1.00;;;;;;5047866;28;20466;-56
2023/04/16 02:52:35;;;;;;;11.53;10.20;;;8.60;1.00;;;;;;5048468;28;20216;-57
2023/04/16 02:55:01;;;;;;;10.40;9.40;;;8.60;1.00;;;;;;5049279;28;20502;-57
2023/04/16 02:57:27;;;;;;;11.40;10.30;;;8.50;1.00;;;;;;5046875;28;20189;-56
2023/04/16 02:59:52;;;;;;;11.40;10.30;;;8.60;1.00;;;;;;5048673;28;20196;-57
2023/04/16 03:02:18;;;;;;;11.50;10.40;;;8.60;1.00;;;;;;5046815;28;20197;-55
2023/04/16 03:04:44;;;;;;;11.00;10.00;;;8.60;1.00;;;;;;5049590;28;20192;-56
2023/04/16 03:07:11;;;;;;;11.67;10.47;;;8.60;1.00;;;;;;5048874;28;20196;-56
2023/04/16 03:09:37;;;;;;;10.93;9.83;;;8.40;1.00;;;;;;5050099;28;20476;-57
2023/04/16 03:12:03;;;;;;;12.50;11.13;;;8.40;1.00;;;;;;5046545;28;20439;-56
2023/04/16 03:14:29;;;;;;;13.17;10.70;;;8.30;1.00;;;;;;5046930;28;20176;-55
2023/04/16 03:16:55;;;;;;;11.40;10.13;;;8.30;1.00;;;;;;5049013;28;20537;-55
2023/04/16 03:19:21;;;;;;;12.00;10.80;;;8.20;1.00;;;;;;5049264;28;21024;-57
2023/04/16 03:21:47;;;;;;;17.23;10.70;;;8.20;1.00;;;;;;5047004;28;20447;-57
2023/04/16 03:24:12;;;;;;;11.90;10.80;;;8.20;1.00;;;;;;5047738;28;20678;-56
2023/04/16 03:26:38;;;;;;;11.40;10.33;;;8.10;1.00;;;;;;5047295;28;20714;-56
2023/04/16 03:29:04;;;;;;;12.70;11.20;;;8.10;1.00;;;;;;5045595;28;20211;-56
2023/04/16 03:31:30;;;;;;;12.27;11.03;;;8.00;1.00;;;;;;5047361;28;20443;-56
2023/04/16 03:33:56;;;;;;;11.30;9.40;;;8.00;1.00;;;;;;5049986;28;20192;-56
2023/04/16 03:36:26;;;;;;;11.03;9.47;;;8.00;1.00;;;;;;5047608;28;20189;-57
2023/04/16 03:38:51;;;;;;;11.33;10.13;;;7.90;1.00;;;;;;5047115;28;20192;-56
2023/04/16 03:41:17;;;;;;;9.93;8.87;;;7.90;1.00;;;;;;5049073;28;20797;-56
2023/04/16 03:43:43;;;;;;;10.07;9.03;;;7.80;1.00;;;;;;5047406;28;20923;-56
2023/04/16 03:46:09;;;;;;;10.73;9.63;;;7.80;1.00;;;;;;5045953;28;20228;-56
2023/04/16 03:48:35;;;;;;;11.80;10.70;;;7.80;1.00;;;;;;5047907;28;20212;-56
2023/04/16 03:51:01;;;;;;;13.13;10.00;;;7.70;1.00;;;;;;5054351;28;20220;-57
2023/04/16 03:53:26;;;;;;;10.03;9.03;;;7.80;1.00;;;;;;5047712;28;20528;-56
2023/04/16 03:55:52;;;;;;;9.93;8.93;;;7.80;1.00;;;;;;5047318;28;20474;-57
2023/04/16 03:58:18;;;;;;;10.60;9.60;;;7.60;1.00;;;;;;5048389;28;20193;-56
2023/04/16 04:00:44;;;;;;;11.33;10.20;;;7.70;1.00;;;;;;5045100;28;20197;-56
2023/04/16 04:03:11;;;;;;;11.60;10.50;;;7.70;1.00;;;;;;5046649;28;21097;-57
2023/04/16 04:05:40;;;;;;;10.57;9.57;;;7.70;1.00;;;;;;5047516;28;20517;-56
2023/04/16 04:08:07;;;;;;;12.53;10.00;;;7.60;1.00;;;;;;5052196;28;20446;-56
2023/04/16 04:10:36;;;;;;;9.80;8.80;;;7.60;1.00;;;;;;5047948;28;20451;-57
2023/04/16 04:13:03;;;;;;;11.60;10.40;;;7.60;1.00;;;;;;5047515;28;20526;-56
2023/04/16 04:15:29;;;;;;;11.27;10.10;;;7.70;1.00;;;;;;5044631;28;21166;-55
2023/04/16 04:17:55;;;;;;;12.00;9.90;;;7.70;1.00;;;;;;5047303;28;20505;-56
2023/04/16 04:20:20;;;;;;;11.50;10.30;;;7.70;1.00;;;;;;5052628;28;20530;-56
2023/04/16 04:22:46;;;;;;;10.27;9.27;;;7.60;1.00;;;;;;5046031;28;20223;-57
2023/04/16 04:25:12;;;;;;;11.03;9.90;;;7.60;1.00;;;;;;5045652;28;20192;-55
2023/04/16 04:27:38;;;;;;;11.67;10.57;;;7.70;1.00;;;;;;5045304;28;20235;-57
2023/04/16 04:30:04;;;;;;;10.90;9.87;;;7.60;1.00;;;;;;5046266;28;20215;-56
2023/04/16 04:32:30;;;;;;;10.73;9.57;;;7.70;1.00;;;;;;5048055;28;20275;-56
2023/04/16 04:34:56;;;;;;;11.03;9.93;;;7.70;1.00;;;;;;5047375;28;20446;-56
2023/04/16 04:37:22;;;;;;;12.63;9.67;;;7.70;1.00;;;;;;5047823;28;20521;-56
2023/04/16 04:39:47;;;;;;;11.97;9.50;;;7.60;1.00;;;;;;5047568;28;20525;-57
2023/04/16 04:42:17;;;;;;;10.40;9.30;;;7.60;1.00;;;;;;5045842;28;20232;-57
2023/04/16 04:44:43;;;;;;;11.27;10.10;;;7.80;1.00;;;;;;5044778;28;20196;-57
2023/04/16 04:47:09;;;;;;;9.50;8.50;;;7.80;1.00;;;;;;5045760;28;20451;-56
2023/04/16 04:49:35;;;;;;;10.63;9.57;;;7.80;1.00;;;;;;5047281;28;20462;-57
2023/04/16 04:52:00;;;;;;;10.57;9.10;;;7.80;1.00;;;;;;5045541;28;20678;-56
2023/04/16 04:54:27;;;;;;;9.47;8.50;;;7.90;1.00;;;;;;5046006;28;20232;-57
2023/04/16 04:56:53;;;;;;;12.33;10.10;;;7.80;1.00;;;;;;5054636;28;20759;-56
2023/04/16 04:59:22;;;;;;;9.77;8.70;;;7.90;1.00;;;;;;5045853;28;20516;-55
2023/04/16 05:01:48;;;;;;;10.60;9.50;;;8.00;1.00;;;;;;5046122;28;20212;-56
2023/04/16 05:04:14;;;;;;;10.60;9.60;;;7.90;1.00;;;;;;5046464;28;20450;-58
2023/04/16 05:06:40;;;;;;;10.60;9.50;;;8.00;1.00;;;;;;5042905;28;20520;-57
2023/04/16 05:09:10;;;;;;;13.43;11.03;;;8.00;1.00;;;;;;5046290;28;20244;-56
2023/04/16 05:11:39;;;;;;;12.47;9.77;;;8.10;1.00;;;;;;5045140;28;20976;-57
2023/04/16 05:14:05;;;;;;;10.73;9.67;;;8.00;1.00;;;;;;5047202;28;20533;-57
2023/04/16 05:16:30;;;;;;;10.10;9.10;;;8.00;1.00;;;;;;5045609;28;20530;-57
2023/04/16 05:18:57;;;;;;;10.03;8.80;;;8.00;1.00;;;;;;5044233;28;20193;-56
2023/04/16 05:21:23;;;;;;;10.77;9.47;;;8.00;1.00;;;;;;5047099;28;20180;-56
2023/04/16 05:23:48;;;;;;;10.43;9.43;;;8.00;1.00;;;;;;5045593;28;20932;-57
2023/04/16 05:26:14;;;;;;;11.37;10.33;;;8.20;1.00;;;;;;5045798;28;20496;-57
2023/04/16 05:28:40;;;;;;;12.37;10.53;;;8.10;1.00;;;;;;5046690;28;20294;-56
2023/04/16 05:31:05;;;;;;;10.47;9.37;;;8.00;1.00;;;;;;5047108;28;20188;-55
2023/04/16 05:33:31;;;;;;;10.43;9.33;;;8.10;1.00;;;;;;5046852;28;20178;-57
2023/04/16 05:35:56;;;;;;;10.53;9.40;;;8.00;1.00;;;;;;5041702;28;21791;-57
2023/04/16 05:38:22;;;;;;;10.40;9.30;;;8.10;1.00;;;;;;5043554;28;20594;-56
2023/04/16 05:40:48;;;;;;;11.53;10.03;;;8.10;1.00;;;;;;5041291;28;20408;-56
2023/04/16 05:43:13;;;;;;;10.43;9.43;;;8.10;1.00;;;;;;5040905;28;20196;-57
2023/04/16 05:45:40;;;;;;;11.70;9.60;;;8.10;1.00;;;;;;5045789;28;20283;-56
2023/04/16 05:48:09;;;;;;;10.80;8.77;;;8.20;1.00;;;;;;5047147;28;20200;-56
2023/04/16 05:50:35;;;;;;;11.07;9.90;;;8.20;1.00;;;;;;5046018;28;20999;-56
2023/04/16 05:53:06;;;;;;;10.93;9.83;;;8.30;1.00;;;;;;5045707;28;20489;-56
2023/04/16 05:55:31;;;;;;;9.20;8.30;;;8.40;1.00;;;;;;5044000;28;20913;-57
2023/04/16 05:57:57;;;;;;;9.47;8.50;;;8.50;1.00;;;;;;5044095;28;20509;-58
2023/04/16 06:00:23;;;;;;;10.00;9.00;;;8.40;1.00;;;;;;5047218;28;20405;-56
2023/04/16 06:02:49;;;;;;;9.73;8.47;;;8.50;1.00;;;;;;5049923;28;20208;-56
2023/04/16 06:05:15;;;;;;;11.90;9.43;;;8.60;1.00;;;;;;5049652;28;20193;-57
2023/04/16 06:07:41;;;;;;;9.53;8.63;;;8.70;1.00;;;;;;5047020;28;20455;-56
2023/04/16 06:10:07;;;;;;;10.40;9.37;;;8.70;1.00;;;;;;5050050;28;20525;-57
2023/04/16 06:12:32;;;;;;;11.20;9.53;;;8.80;1.00;;;;;;5049627;28;20204;-57
2023/04/16 06:15:00;;;;;;;11.07;9.60;;;8.90;1.00;;;;;;5050712;28;20778;-56
2023/04/16 06:17:26;;;;;;;9.93;9.00;;;8.90;1.00;;;;;;5050715;28;20181;-56
2023/04/16 06:19:51;;;;;;;11.07;9.23;;;9.10;1.00;;;;;;5047652;28;21158;-57
2023/04/16 06:22:17;;;;;;;9.57;8.47;;;9.20;1.00;;;;;;5048323;28;20847;-56
2023/04/16 06:24:43;;;;;;;10.33;9.27;;;9.30;1.00;;;;;;5048320;28;20239;-55
2023/04/16 06:27:09;;;;;;;11.53;9.73;;;9.50;1.00;;;;;;5055722;28;20189;-56
2023/04/16 06:29:34;;;;;;;9.90;8.87;;;9.60;1.00;;;;;;5050721;28;20606;-56
2023/04/16 06:32:00;;;;;;;9.07;8.17;;;9.70;1.00;;;;;;5048816;28;20533;-56
2023/04/16 06:34:27;;;;;;;9.13;8.30;;;9.80;1.00;;;;;;5049369;28;20277;-56
2023/04/16 06:36:52;;;;;;;9.77;8.67;;;9.90;1.00;;;;;;5049976;28;20447;-56
2023/04/16 06:39:20;;;;;;;9.73;8.70;;;10.00;1.00;;;;;;5049561;28;20451;-57
2023/04/16 06:41:46;;;;;;;11.10;9.70;;;10.10;1.00;;;;;;5049079;28;20780;-57
2023/04/16 06:44:12;;;;;;;9.17;8.37;;;10.30;1.00;;;;;;5044454;28;20487;-57
2023/04/16 06:46:38;;;;;;;10.93;9.83;;;10.50;1.00;;;;;;5046627;28;20478;-56
2023/04/16 06:49:04;;;;;;;10.07;9.07;;;10.60;1.00;;;;;;5045894;28;20239;-57
2023/04/16 06:51:29;;;;;;;10.67;9.60;;;10.80;1.00;;;;;;5047505;28;20184;-55
2023/04/16 06:53:55;;;;;;;10.13;8.90;;;10.90;1.00;;;;;;5049198;28;20200;-56
2023/04/16 06:56:20;;;;;;;10.10;9.00;;;11.00;1.00;;;;;;5049249;28;20180;-56
2023/04/16 06:58:46;;;;;;;10.53;9.43;;;10.90;1.00;;;;;;5046346;28;20203;-56
2023/04/16 07:01:12;;;;;;;9.87;8.90;;;11.00;1.00;;;;;;5048227;28;20189;-56
2023/04/16 07:03:37;;;;;;;10.67;9.10;;;11.10;1.00;;;;;;5044576;28;20577;-55
2023/04/16 07:06:03;;;;;;;10.57;9.50;;;11.30;1.00;;;;;;5044977;28;20268;-56
2023/04/16 07:08:29;;;;;;;11.13;9.77;;;11.30;1.00;;;;;;5048580;28;20208;-56
2023/04/16 07:10:54;;;;;;;12.83;10.97;;;11.50;1.00;;;;;;5047219;28;20662;-55
2023/04/16 07:13:20;;;;;;;10.17;9.17;;;11.60;1.00;;;;;;5043544;28;20288;-55
2023/04/16 07:15:46;;;;;;;11.07;9.97;;;11.50;1.00;;;;;;5048095;28;20562;-56
2023/04/16 07:18:12;;;;;;;11.50;9.50;;;11.70;1.00;;;;;;5048930;28;20454;-56
2023/04/16 07:20:37;;;;;;;11.13;10.03;;;11.80;1.00;;;;;;5044636;28;20443;-58
2023/04/16 07:23:03;;;;;;;11.53;10.37;;;12.10;1.00;;;;;;5050095;28;20168;-57
2023/04/16 07:25:29;;;;;;;11.20;10.10;;;12.40;1.00;;;;;;5044291;28;20185;-57
2023/04/16 07:27:54;;;;;;;11.50;10.13;;;12.40;1.00;;;;;;5049818;28;20184;-57
2023/04/16 07:30:20;;;;;;;10.63;9.53;;;12.60;1.00;;;;;;5045193;28;20208;-56
2023/04/16 07:32:45;;;;;;;11.50;10.30;;;12.80;1.00;;;;;;5047327;28;20193;-56
2023/04/16 07:35:11;;;;;;;11.73;10.17;;;13.00;1.00;;;;;;5046775;28;20188;-56
2023/04/16 07:37:36;;;;;;;11.27;10.10;;;13.20;1.00;;;;;;5046189;28;20269;-56
2023/04/16 07:40:03;;;;;;;11.73;10.53;;;13.50;1.00;;;;;;5047160;28;20199;-56
2023/04/16 07:42:28;;;;;;;11.17;10.10;;;13.60;1.00;;;;;;5053841;28;20185;-56
2023/04/16 07:44:54;;;;;;;12.03;10.53;;;13.70;1.00;;;;;;5044397;28;21076;-57
2023/04/16 07:47:21;;;;;;;12.77;11.47;;;13.60;1.00;;;;;;5047555;28;20279;-57
2023/04/16 07:49:48;;;;;;;11.70;10.60;;;13.50;1.00;;;;;;5045091;28;20208;-57
2023/04/16 07:52:14;;;;;;;12.83;11.53;;;13.50;1.00;;;;;;5046012;28;20445;-56
2023/04/16 07:54:40;;;;;;;12.93;11.63;;;13.60;1.00;;;;;;5046684;28;20466;-58
2023/04/16 07:57:05;;;;;;;12.27;11.10;;;13.70;1.00;;;;;;5044930;28;20251;-57
2023/04/16 07:59:31;;;;;;;13.50;12.20;;;14.00;1.00;;;;;;5055767;28;20550;-56
2023/04/16 08:01:57;;;;;;;12.80;11.50;;;14.30;1.00;;;;;;5046463;28;20196;-56
2023/04/16 08:04:26;;;;;;;16.07;12.37;;;14.70;1.00;;;;;;5049105;28;20185;-57
2023/04/16 08:06:52;;;;;;;13.60;12.37;;;14.90;1.00;;;;;;5041893;28;20635;-57
2023/04/16 08:09:19;;;;;;;13.33;12.03;;;14.90;1.00;;;;;;5045920;28;20470;-57
2023/04/16 08:11:45;;;;;;;13.33;12.03;;;14.70;1.00;;;;;;5044686;28;20522;-54
2023/04/16 08:14:10;;;;;;;14.30;12.83;;;14.80;1.00;;;;;;5053571;28;20983;-55
2023/04/16 08:16:37;;;;;;;15.10;13.60;;;15.10;1.00;;;;;;5051078;28;20239;-55
2023/04/16 08:19:03;;;;;;;14.53;13.07;;;15.30;1.00;;;;;;5045358;28;20185;-55
2023/04/16 08:21:30;;;;;;;12.80;11.50;;;15.60;1.00;;;;;;5047355;28;20580;-54
2023/04/16 08:23:56;;;;;;;13.70;12.37;;;15.80;1.00;;;;;;5046280;28;20191;-55
2023/04/16 08:26:21;;;;;;;15.50;14.10;;;16.00;99.90;;;;;;5047213;28;20466;-54
2023/04/16 08:28:47;;;;;;;14.50;13.13;;;15.80;99.90;;;;;;5047711;28;20218;-56
2023/04/16 08:31:12;;;;;;;14.83;13.33;;;15.70;1.00;;;;;;5051536;28;20283;-54
2023/04/16 08:33:39;;;;;;;14.90;13.50;;;15.90;1.00;;;;;;5060244;28;20199;-54
2023/04/16 08:36:05;;;;;;;15.47;13.70;;;15.90;99.90;;;;;;5045140;28;20208;-54
2023/04/16 08:38:30;;;;;;;17.23;15.43;;;15.90;99.90;;;;;;5051985;28;20454;-55
2023/04/16 08:41:01;;;;;;;15.20;13.60;;;16.10;99.90;;;;;;5043608;28;20184;-54
2023/04/16 08:43:30;;;;;;;16.60;15.00;;;16.10;99.90;;;;;;5048144;28;20353;-55
2023/04/16 08:45:56;;;;;;;17.93;14.90;;;16.10;99.90;;;;;;5046643;28;20914;-55
2023/04/16 08:48:23;;;;;;;16.93;15.30;;;16.20;99.90;;;;;;5046508;28;20453;-55
2023/04/16 08:50:52;;;;;;;17.33;15.57;;;16.40;99.90;;;;;;5046078;28;20447;-54
2023/04/16 08:53:21;;;;;;;17.23;15.63;;;16.70;99.90;;;;;;5047768;28;20458;-55
2023/04/16 08:55:48;;;;;;;18.07;16.43;;;17.10;99.90;;;;;;5059493;28;20603;-55
2023/04/16 08:58:19;;;;;;;18.43;16.73;;;17.30;99.90;;;;;;5051010;28;20527;-54
2023/04/16 09:00:47;;;;;;;18.33;16.53;;;17.10;99.90;;;;;;5046196;28;20455;-54
2023/04/16 09:03:13;;;;;;;16.73;15.13;;;16.90;99.90;;;;;;5045791;28;20446;-54
2023/04/16 09:05:39;;;;;;;17.30;15.53;;;16.50;99.90;;;;;;5044527;28;20450;-55
2023/04/16 09:08:05;;;;;;;18.40;16.50;;;16.10;99.90;;;;;;5043780;28;21037;-55
2023/04/16 09:10:31;;;;;;;16.03;14.33;;;15.70;99.90;;;;;;5044239;28;20660;-55
2023/04/16 09:12:57;;;;;;;16.50;14.93;;;15.80;1.00;;;;;;5042782;28;20425;-55
2023/04/16 09:15:27;;;;;;;15.60;14.03;;;15.90;1.00;;;;;;5043016;28;21626;-54
2023/04/16 09:17:53;;;;;;;15.83;14.13;;;15.90;1.00;;;;;;5037438;28;20617;-55
2023/04/16 09:20:19;;;;;;;13.17;11.87;;;15.90;1.00;;;;;;5039435;28;20848;-55
2023/04/16 09:22:45;;;;;;;13.90;12.50;;;15.80;1.00;;;;;;5046936;28;20466;-55
2023/04/16 09:25:12;;;;;;;13.90;12.60;;;15.30;1.00;;;;;;5044072;28;20959;-54
2023/04/16 09:27:38;;;;;;;13.07;11.77;;;15.40;1.00;;;;;;5046603;28;20451;-54
2023/04/16 09:30:29;;;;;;;17.20;14.80;;;15.70;1.00;;;;;;5044937;28;20832;-55
2023/04/16 09:33:20;;;;;;;15.67;14.07;;;15.90;1.00;;;;;;5046575;28;20556;-54
2023/04/16 09:35:51;;;;;;;15.90;14.10;;;16.10;1.00;;;;;;5043479;28;20488;-56
2023/04/16 09:38:18;;;;;;;15.80;14.30;;;16.00;1.00;;;;;;5045850;28;20568;-55
2023/04/16 09:40:44;;;;;;;16.40;14.80;;;15.90;1.00;;;;;;5045042;28;20955;-55
2023/04/16 09:43:17;;;;;;;15.27;13.67;;;15.90;1.00;;;;;;5047234;28;20435;-55
2023/04/16 09:45:54;;;;;;;14.47;13.07;;;16.20;1.00;;;;;;5044823;28;20664;-54
2023/04/16 09:48:31;;;;;;;13.30;12.10;;;16.40;1.00;;;;;;5043009;28;20589;-55
2023/04/16 09:50:58;;;;;;;15.80;13.77;;;16.10;1.00;;;;;;5045205;28;20550;-56
2023/04/16 09:53:28;;;;;;;15.30;13.90;;;16.30;1.00;;;;;;5041036;28;20471;-55
2023/04/16 09:55:58;;;;;;;15.37;13.77;;;16.30;1.00;;;;;;5046320;28;20482;-56
2023/04/16 09:58:24;;;;;;;14.57;12.90;;;16.20;1.00;;;;;;5037857;28;20458;-57
2023/04/16 10:01:11;;;;;;;14.87;13.43;;;16.30;1.00;;;;;;5047539;28;21007;-56
2023/04/16 10:03:39;;;;;;;15.23;13.63;;;16.70;1.00;;;;;;5049228;28;20447;-54
2023/04/16 10:06:12;;;;;;;15.57;14.00;;;16.80;1.00;;;;;;5045244;28;20465;-56
2023/04/16 10:08:42;;;;;;;13.70;12.40;;;17.00;1.00;;;;;;5038738;28;20498;-55
2023/04/16 10:11:08;;;;;;;14.67;13.10;;;17.20;99.90;;;;;;5044527;28;20443;-56
2023/04/16 10:13:33;;;;;;;16.27;14.57;;;17.40;99.90;;;;;;5040893;28;20465;-55
2023/04/16 10:15:59;;;;;;;15.57;14.13;;;17.60;99.90;;;;;;5046334;28;20180;-55
2023/04/16 10:18:26;;;;;;;15.97;14.37;;;17.80;99.90;;;;;;5042428;28;20585;-56
2023/04/16 10:20:52;;;;;;;14.70;13.40;;;17.00;99.90;;;;;;5047296;28;20935;-56
2023/04/16 10:23:20;;;;;;;13.13;11.90;;;17.00;99.90;;;;;;5045213;28;20454;-56
2023/04/16 10:25:47;;;;;;;11.93;10.87;;;17.40;99.90;;;;;;5045908;28;20653;-56
2023/04/16 10:28:14;;;;;;;14.23;12.93;;;17.80;99.90;;;;;;5040078;28;20991;-54
2023/04/16 10:30:51;;;;;;;13.43;12.13;;;18.10;99.90;;;;;;5045220;28;20631;-54
2023/04/16 10:33:22;;;;;;;13.80;12.50;;;18.50;99.90;;;;;;5044278;28;20456;-54
2023/04/16 10:36:06;;;;;;;12.70;10.90;;;18.80;99.90;;;;;;5048260;28;20429;-56
2023/04/16 10:38:32;;;;;;;10.87;9.87;;;18.90;99.90;;;;;;5049067;28;20809;-55
2023/04/16 10:41:05;;;;;;;10.30;8.90;;;18.90;99.90;;;;;;5044981;28;20413;-55
2023/04/16 10:43:33;;;;;;;9.70;8.70;;;18.80;99.90;;;;;;5049657;28;20216;-55
2023/04/16 10:46:20;;;;;;;10.63;9.53;;;18.90;99.90;;;;;;5045813;28;20410;-55
2023/04/16 10:48:47;;;;;;;11.00;9.97;;;18.50;99.90;;;;;;5048998;28;20440;-56
2023/04/16 10:51:33;;;;;;;12.30;9.57;;;18.40;99.90;;;;;;5043323;28;20446;-55
2023/04/16 10:54:18;;;;;;;10.30;9.30;;;18.30;99.90;;;;;;5046037;28;21442;-57
2023/04/16 10:56:45;;;;;;;12.10;10.90;;;18.50;99.90;;;;;;5047488;28;20471;-55
2023/04/16 10:59:12;;;;;;;11.50;10.40;;;18.30;99.90;;;;;;5051888;28;21006;-54
2023/04/16 11:01:42;;;;;;;11.43;10.23;;;17.80;99.90;;;;;;5058534;28;20422;-54
2023/04/16 11:04:20;;;;;;;12.87;11.63;;;17.30;99.90;;;;;;5048962;28;20449;-55
2023/04/16 11:07:14;;;;;;;12.60;11.30;;;17.10;99.90;;;;;;5052217;28;20551;-56
2023/04/16 11:09:58;;;;;;;12.30;11.10;;;17.10;99.90;;;;;;5045227;28;20442;-57
2023/04/16 11:12:26;;;;;;;11.00;9.17;;;17.00;99.90;;;;;;5037371;28;20524;-56
2023/04/16 11:15:00;;;;;;;10.00;8.63;;;17.10;99.90;;;;;;5047324;28;20450;-55
2023/04/16 11:17:42;;;;;;;10.40;8.47;;;17.20;99.90;;;;;;5046844;28;20785;-57
2023/04/16 11:20:17;;;;;;;9.03;8.20;;;17.60;99.90;;;;;;5047504;28;20450;-55
2023/04/16 11:22:44;;;;;;;8.57;7.77;;;17.40;99.90;;;;;;5046650;28;21041;-55
2023/04/16 11:25:10;;;;;;;8.67;7.87;;;17.70;99.90;;;;;;5053320;28;20546;-57
2023/04/16 11:27:36;;;;;;;10.27;8.57;;;17.30;99.90;;;;;;5043179;28;20451;-55
2023/04/16 11:30:04;;;;;;;10.00;8.83;;;17.10;99.90;;;;;;5043235;28;20442;-55
2023/04/16 11:32:32;;;;;;;9.00;8.20;;;17.40;99.90;;;;;;5046241;28;20239;-56
2023/04/16 11:35:02;;;;;;;9.57;8.70;;;17.50;99.90;;;;;;5046588;28;20453;-55
2023/04/16 11:37:36;;;;;;;8.90;8.10;;;17.60;99.90;;;;;;5047060;28;20454;-55
2023/04/16 11:40:05;;;;;;;9.37;8.57;;;17.30;99.90;;;;;;5049805;28;20432;-56
2023/04/16 11:42:32;;;;;;;8.60;7.80;;;17.00;99.90;;;;;;5052131;28;20463;-56
2023/04/16 11:44:59;;;;;;;11.40;9.33;;;17.20;99.90;;;;;;5046455;28;20504;-54
2023/04/16 11:47:26;;;;;;;6.90;6.23;;;17.40;99.90;;;;;;5043688;28;20422;-55
2023/04/16 11:49:52;;;;;;;7.23;6.53;;;17.30;99.90;;;;;;5036770;28;20473;-54
2023/04/16 11:52:31;;;;;;;6.33;5.83;;;17.50;99.90;;;;;;5047833;28;20772;-55
2023/04/16 11:54:58;;;;;;;5.90;5.40;;;17.80;99.90;;;;;;5046153;28;20615;-55
2023/04/16 11:57:28;;;;;;;6.47;5.97;;;17.90;99.90;;;;;;5045353;28;20455;-56
2023/04/16 11:59:58;;;;;;;6.20;5.60;;;17.60;99.90;;;;;;5044037;28;20425;-55
2023/04/16 12:02:38;;;;;;;6.73;6.13;;;17.80;99.90;;;;;;5048608;28;20457;-55
2023/04/16 12:05:06;;;;;;;6.60;6.00;;;17.90;99.90;;;;;;5045952;28;20455;-55
2023/04/16 12:07:42;;;;;;;6.37;5.77;;;18.40;99.90;;;;;;5046253;28;20748;-57
2023/04/16 12:10:08;;;;;;;5.17;4.77;;;18.30;99.90;;;;;;5046882;28;20466;-56
2023/04/16 12:12:34;;;;;;;6.50;5.90;;;18.40;99.90;;;;;;5045580;28;20482;-56
2023/04/16 12:15:03;;;;;;;4.90;4.50;;;18.70;99.90;;;;;;5049265;28;20456;-54
2023/04/16 12:17:33;;;;;;;5.43;4.90;;;19.00;99.90;;;;;;5052341;28;21009;-55
2023/04/16 12:20:04;;;;;;;5.23;4.83;;;18.90;99.90;;;;;;5053864;28;20454;-55
2023/04/16 12:22:35;;;;;;;5.70;5.20;;;18.70;99.90;;;;;;5048344;28;20807;-56
2023/04/16 12:25:06;;;;;;;4.80;4.40;;;18.40;99.90;;;;;;5047000;28;20459;-55
2023/04/16 12:27:54;;;;;;;4.90;4.40;;;18.50;99.90;;;;;;5046352;28;20470;-54
2023/04/16 12:30:22;;;;;;;3.93;3.63;;;18.60;99.90;;;;;;5051663;28;20823;-55
2023/04/16 12:32:49;;;;;;;4.47;4.07;;;18.70;99.90;;;;;;5045597;28;20450;-56
2023/04/16 12:35:31;;;;;;;4.40;4.10;;;18.80;99.90;;;;;;5047900;28;20447;-55
2023/04/16 12:37:57;;;;;;;4.43;3.90;;;18.60;99.90;;;;;;5055135;28;20459;-56
2023/04/16 12:40:23;;;;;;;5.90;4.40;;;18.50;99.90;;;;;;5051831;28;20883;-56
2023/04/16 12:42:49;;;;;;;5.00;4.60;;;19.00;99.90;;;;;;5047635;28;20188;-56
2023/04/16 12:45:14;;;;;;;5.10;4.70;;;19.20;99.90;;;;;;5049069;28;20554;-56
2023/04/16 12:47:40;;;;;;;5.73;5.23;;;19.40;99.90;;;;;;5047546;28;20647;-55